Caldwell, OH (43724)

5:33 PM EDT on September 20, 2014 (GMT -0400)
OHDOT 81-IR77 MM 16 | Change Station
CLOSE
Current Station
Personal Weather Station
Location: Macksburg, OH
Elevation: 734 ft
Nearby Weather Stations

Elev 734 ft 39.63 °N, 81.46 °W | Updated 31 minutes ago

Partly Cloudy
Partly Cloudy
79 °F
Feels Like 81 °F
N
4
Wind Variable Wind from SSE
Gusts 11.0 mph

Today
High -- | Low -- °F
--% Chance of Precip.
Yesterday
High -- | Low -- °F
Precip. -- in
7:11 AM 7:26 PM
Waning Crescent, 10% visible
Pressure 29.96 in
Visibility 10.0 miles
Clouds Scattered Clouds 4500 ft
Heat Index 81 °F
Dew Point 63 °F
Humidity 58%
Rainfall -999.00 in
Snow Depth Not available.
UV 2 out of 12
Pollen 5.10 out of 12
Air Quality Not available.
Flu Activity Not available.
METAR KZZV 202053Z AUTO 18012KT 10SM SCT045 27/16 A2998 RMK AO2 SLP146 T02720161 56025

More Conditions Fewer Conditions

Pressure 29.96 in
Visibility 10.0 miles
Clouds Scattered Clouds 4500 ft
Heat Index 81 °F
Dew Point 63 °F
Humidity 58%
Rainfall -999.00 in
Snow Depth Not available.
UV 2 out of 12
Pollen 5.10 out of 12
Air Quality Not available.
Flu Activity Not available.
METAR KZZV 202053Z AUTO 18012KT 10SM SCT045 27/16 A2998 RMK AO2 SLP146 T02720161 56025

More Conditions Fewer Conditions

10-Day Weather Forecast

Almanac

Astronomy

Sep. 20, 2014 Rise Set
Actual Time 7:11 AM EDT 7:26 PM EDT
Civil Twilight 6:44 AM EDT 7:53 PM EDT
Nautical Twilight 6:13 AM EDT 8:24 PM EDT
Astronomical Twilight 5:40 AM EDT 8:57 PM EDT
Moon 3:50 AM EDT 5:28 PM EDT
Length of Visible Light 13h 08m
Length of Day
12h 14m
Tomorrow will be 2m 35s shorter.
Waning Crescent, 10% of the Moon is Illuminated
Today
Waning Crescent
Sep 24
New
Oct 1
First Quarter
Oct 8
Full
Oct 15
Last Quarter

Today's Extremes

State Highs State Lows

Community

WunderPhotos

Upload Photos

1,754,947 photos uploaded!

WunderBlogs® & News

Nearby

Snow Depth

Station Depth Elevation
No new snow has been reported.

Earthquake Activity

City Distance Mag. Time & Date
No recent earthquake activity has been reported nearby.
Minimum magnitude displayed is 2.5.

Coastal Water Temperatures

Place Temperature
No Stations Reporting

Nearby Weather Stations